sensor_id;sensor_type;location;lat;lon;timestamp;P1;durP1;ratioP1;P2;durP2;ratioP2
9222;SDS011;7557;51.698;3.942;2023-03-23T00:02:26;7.97;;;3.80;;
9222;SDS011;7557;51.698;3.942;2023-03-23T00:04:54;2.87;;;2.63;;
9222;SDS011;7557;51.698;3.942;2023-03-23T00:07:22;3.60;;;3.10;;
9222;SDS011;7557;51.698;3.942;2023-03-23T00:09:53;4.50;;;2.63;;
9222;SDS011;7557;51.698;3.942;2023-03-23T00:12:21;5.37;;;3.17;;
9222;SDS011;7557;51.698;3.942;2023-03-23T00:14:59;3.30;;;3.00;;
9222;SDS011;7557;51.698;3.942;2023-03-23T00:17:28;4.67;;;2.97;;
9222;SDS011;7557;51.698;3.942;2023-03-23T00:19:58;5.70;;;2.90;;
9222;SDS011;7557;51.698;3.942;2023-03-23T00:22:26;4.40;;;2.60;;
9222;SDS011;7557;51.698;3.942;2023-03-23T00:24:54;4.40;;;3.10;;
9222;SDS011;7557;51.698;3.942;2023-03-23T00:27:23;4.23;;;2.77;;
9222;SDS011;7557;51.698;3.942;2023-03-23T00:29:51;3.90;;;2.40;;
9222;SDS011;7557;51.698;3.942;2023-03-23T00:32:20;3.53;;;2.67;;
9222;SDS011;7557;51.698;3.942;2023-03-23T00:34:52;4.07;;;2.70;;
9222;SDS011;7557;51.698;3.942;2023-03-23T00:37:20;2.83;;;2.60;;
9222;SDS011;7557;51.698;3.942;2023-03-23T00:39:47;3.10;;;2.83;;
9222;SDS011;7557;51.698;3.942;2023-03-23T00:42:17;3.57;;;2.90;;
9222;SDS011;7557;51.698;3.942;2023-03-23T00:44:46;7.30;;;2.50;;
9222;SDS011;7557;51.698;3.942;2023-03-23T00:47:14;6.60;;;2.93;;
9222;SDS011;7557;51.698;3.942;2023-03-23T00:49:44;3.80;;;3.17;;
9222;SDS011;7557;51.698;3.942;2023-03-23T00:52:11;2.67;;;2.47;;
9222;SDS011;7557;51.698;3.942;2023-03-23T00:54:38;3.17;;;2.87;;
9222;SDS011;7557;51.698;3.942;2023-03-23T00:57:06;5.93;;;3.17;;
9222;SDS011;7557;51.698;3.942;2023-03-23T00:59:35;4.37;;;2.70;;
9222;SDS011;7557;51.698;3.942;2023-03-23T01:02:02;3.50;;;2.40;;
9222;SDS011;7557;51.698;3.942;2023-03-23T01:04:30;3.87;;;2.67;;
9222;SDS011;7557;51.698;3.942;2023-03-23T01:07:03;3.13;;;2.83;;
9222;SDS011;7557;51.698;3.942;2023-03-23T01:09:33;5.37;;;2.77;;
9222;SDS011;7557;51.698;3.942;2023-03-23T01:12:01;3.45;;;2.47;;
9222;SDS011;7557;51.698;3.942;2023-03-23T01:14:28;2.67;;;1.83;;
9222;SDS011;7557;51.698;3.942;2023-03-23T01:16:56;3.28;;;2.45;;
9222;SDS011;7557;51.698;3.942;2023-03-23T01:19:23;4.63;;;2.70;;
9222;SDS011;7557;51.698;3.942;2023-03-23T01:21:51;2.20;;;2.00;;
9222;SDS011;7557;51.698;3.942;2023-03-23T01:24:20;2.63;;;2.43;;
9222;SDS011;7557;51.698;3.942;2023-03-23T01:26:47;3.13;;;2.07;;
9222;SDS011;7557;51.698;3.942;2023-03-23T01:29:15;2.53;;;2.23;;
9222;SDS011;7557;51.698;3.942;2023-03-23T01:31:43;2.30;;;1.83;;
9222;SDS011;7557;51.698;3.942;2023-03-23T01:34:11;2.43;;;2.30;;
9222;SDS011;7557;51.698;3.942;2023-03-23T01:36:38;2.30;;;2.20;;
9222;SDS011;7557;51.698;3.942;2023-03-23T01:39:06;3.73;;;2.20;;
9222;SDS011;7557;51.698;3.942;2023-03-23T01:41:35;2.47;;;2.23;;
9222;SDS011;7557;51.698;3.942;2023-03-23T01:44:06;2.90;;;2.25;;
9222;SDS011;7557;51.698;3.942;2023-03-23T01:46:54;3.20;;;2.28;;
9222;SDS011;7557;51.698;3.942;2023-03-23T01:49:23;4.55;;;2.92;;
9222;SDS011;7557;51.698;3.942;2023-03-23T01:51:55;3.83;;;2.30;;
9222;SDS011;7557;51.698;3.942;2023-03-23T01:54:26;2.33;;;2.13;;
9222;SDS011;7557;51.698;3.942;2023-03-23T01:56:57;2.35;;;2.15;;
9222;SDS011;7557;51.698;3.942;2023-03-23T01:59:29;5.30;;;2.55;;
9222;SDS011;7557;51.698;3.942;2023-03-23T02:01:59;4.30;;;2.00;;
9222;SDS011;7557;51.698;3.942;2023-03-23T02:04:27;3.70;;;2.10;;
9222;SDS011;7557;51.698;3.942;2023-03-23T02:06:56;2.50;;;2.30;;
9222;SDS011;7557;51.698;3.942;2023-03-23T02:09:24;2.35;;;2.13;;
9222;SDS011;7557;51.698;3.942;2023-03-23T02:11:52;2.20;;;2.10;;
9222;SDS011;7557;51.698;3.942;2023-03-23T02:14:22;2.67;;;2.27;;
9222;SDS011;7557;51.698;3.942;2023-03-23T02:16:52;2.20;;;2.00;;
9222;SDS011;7557;51.698;3.942;2023-03-23T02:19:31;4.68;;;2.60;;
9222;SDS011;7557;51.698;3.942;2023-03-23T02:22:22;2.47;;;2.03;;
9222;SDS011;7557;51.698;3.942;2023-03-23T02:25:18;2.75;;;2.15;;
9222;SDS011;7557;51.698;3.942;2023-03-23T02:28:11;4.30;;;2.20;;
9222;SDS011;7557;51.698;3.942;2023-03-23T02:31:12;4.50;;;1.93;;
9222;SDS011;7557;51.698;3.942;2023-03-23T02:33:51;2.03;;;1.93;;
9222;SDS011;7557;51.698;3.942;2023-03-23T02:36:25;3.30;;;2.17;;
9222;SDS011;7557;51.698;3.942;2023-03-23T02:38:57;2.20;;;2.10;;
9222;SDS011;7557;51.698;3.942;2023-03-23T02:41:32;2.00;;;1.90;;
9222;SDS011;7557;51.698;3.942;2023-03-23T02:44:06;4.20;;;2.37;;
9222;SDS011;7557;51.698;3.942;2023-03-23T02:46:35;2.20;;;1.90;;
9222;SDS011;7557;51.698;3.942;2023-03-23T02:49:05;2.70;;;2.10;;
9222;SDS011;7557;51.698;3.942;2023-03-23T02:51:36;1.77;;;1.63;;
9222;SDS011;7557;51.698;3.942;2023-03-23T02:54:04;2.70;;;2.50;;
9222;SDS011;7557;51.698;3.942;2023-03-23T02:56:33;2.97;;;1.83;;
9222;SDS011;7557;51.698;3.942;2023-03-23T02:59:02;5.33;;;2.37;;
9222;SDS011;7557;51.698;3.942;2023-03-23T03:04:24;3.40;;;1.60;;
9222;SDS011;7557;51.698;3.942;2023-03-23T03:06:57;4.55;;;2.50;;
9222;SDS011;7557;51.698;3.942;2023-03-23T03:09:36;5.87;;;2.27;;
9222;SDS011;7557;51.698;3.942;2023-03-23T03:12:10;3.53;;;2.27;;
9222;SDS011;7557;51.698;3.942;2023-03-23T03:14:44;3.03;;;2.23;;
9222;SDS011;7557;51.698;3.942;2023-03-23T03:17:17;4.27;;;1.97;;
9222;SDS011;7557;51.698;3.942;2023-03-23T03:19:52;1.87;;;1.77;;
9222;SDS011;7557;51.698;3.942;2023-03-23T03:22:23;4.07;;;2.20;;
9222;SDS011;7557;51.698;3.942;2023-03-23T03:24:55;2.65;;;1.60;;
9222;SDS011;7557;51.698;3.942;2023-03-23T03:27:24;2.83;;;1.80;;
9222;SDS011;7557;51.698;3.942;2023-03-23T03:29:54;3.80;;;2.28;;
9222;SDS011;7557;51.698;3.942;2023-03-23T03:32:25;4.35;;;2.17;;
9222;SDS011;7557;51.698;3.942;2023-03-23T03:35:00;4.80;;;2.42;;
9222;SDS011;7557;51.698;3.942;2023-03-23T03:37:32;3.90;;;2.33;;
9222;SDS011;7557;51.698;3.942;2023-03-23T03:40:03;3.40;;;1.77;;
9222;SDS011;7557;51.698;3.942;2023-03-23T03:42:36;6.80;;;2.33;;
9222;SDS011;7557;51.698;3.942;2023-03-23T03:45:05;5.53;;;2.58;;
9222;SDS011;7557;51.698;3.942;2023-03-23T03:47:34;5.95;;;2.13;;
9222;SDS011;7557;51.698;3.942;2023-03-23T03:50:03;6.38;;;2.30;;
9222;SDS011;7557;51.698;3.942;2023-03-23T03:52:32;4.10;;;2.17;;
9222;SDS011;7557;51.698;3.942;2023-03-23T03:55:00;2.57;;;1.80;;
9222;SDS011;7557;51.698;3.942;2023-03-23T03:57:28;5.77;;;2.10;;
9222;SDS011;7557;51.698;3.942;2023-03-23T03:59:56;6.43;;;2.63;;
9222;SDS011;7557;51.698;3.942;2023-03-23T04:02:23;6.70;;;2.57;;
9222;SDS011;7557;51.698;3.942;2023-03-23T04:04:51;5.65;;;2.58;;
9222;SDS011;7557;51.698;3.942;2023-03-23T04:07:20;6.30;;;2.53;;
9222;SDS011;7557;51.698;3.942;2023-03-23T04:09:51;6.87;;;3.23;;
9222;SDS011;7557;51.698;3.942;2023-03-23T04:12:20;4.33;;;2.73;;
9222;SDS011;7557;51.698;3.942;2023-03-23T04:14:47;8.67;;;2.90;;
9222;SDS011;7557;51.698;3.942;2023-03-23T04:17:15;5.77;;;2.30;;
9222;SDS011;7557;51.698;3.942;2023-03-23T04:19:45;10.20;;;3.60;;
9222;SDS011;7557;51.698;3.942;2023-03-23T04:22:12;10.70;;;3.03;;
9222;SDS011;7557;51.698;3.942;2023-03-23T04:24:43;7.67;;;2.23;;
9222;SDS011;7557;51.698;3.942;2023-03-23T04:27:10;7.10;;;2.88;;
9222;SDS011;7557;51.698;3.942;2023-03-23T04:29:38;6.87;;;2.87;;
9222;SDS011;7557;51.698;3.942;2023-03-23T04:32:06;10.93;;;2.83;;
9222;SDS011;7557;51.698;3.942;2023-03-23T04:34:33;6.73;;;3.13;;
9222;SDS011;7557;51.698;3.942;2023-03-23T04:37:01;5.27;;;3.00;;
9222;SDS011;7557;51.698;3.942;2023-03-23T04:39:28;6.30;;;3.00;;
9222;SDS011;7557;51.698;3.942;2023-03-23T04:41:59;5.77;;;2.63;;
9222;SDS011;7557;51.698;3.942;2023-03-23T04:44:27;7.30;;;2.97;;
9222;SDS011;7557;51.698;3.942;2023-03-23T04:46:57;7.17;;;3.13;;
9222;SDS011;7557;51.698;3.942;2023-03-23T04:49:27;7.87;;;2.87;;
9222;SDS011;7557;51.698;3.942;2023-03-23T04:51:55;9.73;;;2.37;;
9222;SDS011;7557;51.698;3.942;2023-03-23T04:54:22;7.83;;;2.83;;
9222;SDS011;7557;51.698;3.942;2023-03-23T04:56:52;11.73;;;3.43;;
9222;SDS011;7557;51.698;3.942;2023-03-23T04:59:21;6.13;;;2.70;;
9222;SDS011;7557;51.698;3.942;2023-03-23T05:01:53;14.83;;;3.17;;
9222;SDS011;7557;51.698;3.942;2023-03-23T05:04:21;8.17;;;2.70;;
9222;SDS011;7557;51.698;3.942;2023-03-23T05:06:50;5.53;;;2.37;;
9222;SDS011;7557;51.698;3.942;2023-03-23T05:09:18;4.72;;;2.22;;
9222;SDS011;7557;51.698;3.942;2023-03-23T05:11:46;10.88;;;3.10;;
9222;SDS011;7557;51.698;3.942;2023-03-23T05:14:13;7.50;;;2.70;;
9222;SDS011;7557;51.698;3.942;2023-03-23T05:16:42;10.17;;;3.50;;
9222;SDS011;7557;51.698;3.942;2023-03-23T05:19:14;8.53;;;3.77;;
9222;SDS011;7557;51.698;3.942;2023-03-23T05:21:41;3.92;;;2.80;;
9222;SDS011;7557;51.698;3.942;2023-03-23T05:24:10;10.40;;;2.87;;
9222;SDS011;7557;51.698;3.942;2023-03-23T05:26:37;8.27;;;3.37;;
9222;SDS011;7557;51.698;3.942;2023-03-23T05:29:05;5.93;;;3.37;;
9222;SDS011;7557;51.698;3.942;2023-03-23T05:31:32;7.07;;;3.13;;
9222;SDS011;7557;51.698;3.942;2023-03-23T05:34:02;11.30;;;2.83;;
9222;SDS011;7557;51.698;3.942;2023-03-23T05:36:29;9.77;;;3.57;;
9222;SDS011;7557;51.698;3.942;2023-03-23T05:38:57;6.13;;;2.43;;
9222;SDS011;7557;51.698;3.942;2023-03-23T05:41:25;9.77;;;2.77;;
9222;SDS011;7557;51.698;3.942;2023-03-23T05:43:52;7.10;;;3.13;;
9222;SDS011;7557;51.698;3.942;2023-03-23T05:46:23;10.07;;;3.20;;
9222;SDS011;7557;51.698;3.942;2023-03-23T05:48:50;10.43;;;3.83;;
9222;SDS011;7557;51.698;3.942;2023-03-23T05:51:20;7.60;;;3.57;;
9222;SDS011;7557;51.698;3.942;2023-03-23T05:53:49;11.00;;;3.63;;
9222;SDS011;7557;51.698;3.942;2023-03-23T05:56:17;8.30;;;3.17;;
9222;SDS011;7557;51.698;3.942;2023-03-23T05:58:44;11.70;;;3.53;;
9222;SDS011;7557;51.698;3.942;2023-03-23T06:01:12;10.47;;;3.60;;
9222;SDS011;7557;51.698;3.942;2023-03-23T06:03:41;8.77;;;3.17;;
9222;SDS011;7557;51.698;3.942;2023-03-23T06:06:09;8.77;;;4.27;;
9222;SDS011;7557;51.698;3.942;2023-03-23T06:08:40;8.93;;;3.50;;
9222;SDS011;7557;51.698;3.942;2023-03-23T06:11:08;5.17;;;2.73;;
9222;SDS011;7557;51.698;3.942;2023-03-23T06:13:35;11.23;;;3.67;;
9222;SDS011;7557;51.698;3.942;2023-03-23T06:16:03;6.57;;;3.03;;
9222;SDS011;7557;51.698;3.942;2023-03-23T06:18:31;15.33;;;3.50;;
9222;SDS011;7557;51.698;3.942;2023-03-23T06:21:01;9.47;;;3.00;;
9222;SDS011;7557;51.698;3.942;2023-03-23T06:23:29;9.13;;;2.80;;
9222;SDS011;7557;51.698;3.942;2023-03-23T06:25:59;12.30;;;3.17;;
9222;SDS011;7557;51.698;3.942;2023-03-23T06:28:28;8.30;;;3.10;;
9222;SDS011;7557;51.698;3.942;2023-03-23T06:30:58;12.37;;;3.83;;
9222;SDS011;7557;51.698;3.942;2023-03-23T06:33:26;13.33;;;3.73;;
9222;SDS011;7557;51.698;3.942;2023-03-23T06:35:54;8.60;;;3.30;;
9222;SDS011;7557;51.698;3.942;2023-03-23T06:38:22;9.13;;;3.40;;
9222;SDS011;7557;51.698;3.942;2023-03-23T06:40:51;9.17;;;3.70;;
9222;SDS011;7557;51.698;3.942;2023-03-23T06:43:21;11.73;;;3.40;;
9222;SDS011;7557;51.698;3.942;2023-03-23T06:45:48;11.13;;;3.73;;
9222;SDS011;7557;51.698;3.942;2023-03-23T06:48:16;11.83;;;3.80;;
9222;SDS011;7557;51.698;3.942;2023-03-23T06:50:44;18.63;;;3.07;;
9222;SDS011;7557;51.698;3.942;2023-03-23T06:53:13;8.07;;;3.00;;
9222;SDS011;7557;51.698;3.942;2023-03-23T06:55:42;12.80;;;3.63;;
9222;SDS011;7557;51.698;3.942;2023-03-23T06:58:10;10.97;;;3.50;;
9222;SDS011;7557;51.698;3.942;2023-03-23T07:00:39;6.57;;;2.73;;
9222;SDS011;7557;51.698;3.942;2023-03-23T07:03:07;11.23;;;2.80;;
9222;SDS011;7557;51.698;3.942;2023-03-23T07:05:35;10.53;;;4.10;;
9222;SDS011;7557;51.698;3.942;2023-03-23T07:08:03;9.43;;;3.20;;
9222;SDS011;7557;51.698;3.942;2023-03-23T07:10:31;12.27;;;3.60;;
9222;SDS011;7557;51.698;3.942;2023-03-23T07:12:58;8.13;;;3.23;;
9222;SDS011;7557;51.698;3.942;2023-03-23T07:15:27;7.73;;;3.30;;
9222;SDS011;7557;51.698;3.942;2023-03-23T07:17:55;10.77;;;3.17;;
9222;SDS011;7557;51.698;3.942;2023-03-23T07:20:23;9.37;;;2.97;;
9222;SDS011;7557;51.698;3.942;2023-03-23T07:22:50;7.00;;;2.97;;
9222;SDS011;7557;51.698;3.942;2023-03-23T07:25:19;7.77;;;3.13;;
9222;SDS011;7557;51.698;3.942;2023-03-23T07:27:47;13.97;;;3.83;;
9222;SDS011;7557;51.698;3.942;2023-03-23T07:30:15;12.77;;;3.45;;
9222;SDS011;7557;51.698;3.942;2023-03-23T07:32:43;7.87;;;3.30;;
9222;SDS011;7557;51.698;3.942;2023-03-23T07:35:12;6.67;;;2.63;;
9222;SDS011;7557;51.698;3.942;2023-03-23T07:37:40;6.83;;;2.60;;
9222;SDS011;7557;51.698;3.942;2023-03-23T07:40:08;8.47;;;3.07;;
9222;SDS011;7557;51.698;3.942;2023-03-23T07:42:40;7.97;;;3.40;;
9222;SDS011;7557;51.698;3.942;2023-03-23T07:45:09;8.37;;;2.70;;
9222;SDS011;7557;51.698;3.942;2023-03-23T07:47:37;9.67;;;2.97;;
9222;SDS011;7557;51.698;3.942;2023-03-23T07:50:06;8.73;;;3.20;;
9222;SDS011;7557;51.698;3.942;2023-03-23T07:52:36;14.30;;;3.97;;
9222;SDS011;7557;51.698;3.942;2023-03-23T07:55:04;10.93;;;3.10;;
9222;SDS011;7557;51.698;3.942;2023-03-23T07:57:33;13.73;;;3.40;;
9222;SDS011;7557;51.698;3.942;2023-03-23T08:00:01;9.40;;;3.43;;
9222;SDS011;7557;51.698;3.942;2023-03-23T08:02:40;10.38;;;3.13;;
9222;SDS011;7557;51.698;3.942;2023-03-23T08:05:08;7.40;;;2.67;;
9222;SDS011;7557;51.698;3.942;2023-03-23T08:07:37;7.63;;;2.33;;
9222;SDS011;7557;51.698;3.942;2023-03-23T08:10:05;14.10;;;4.00;;
9222;SDS011;7557;51.698;3.942;2023-03-23T08:12:35;8.17;;;2.33;;
9222;SDS011;7557;51.698;3.942;2023-03-23T08:15:04;12.73;;;2.90;;
9222;SDS011;7557;51.698;3.942;2023-03-23T08:17:33;8.10;;;2.92;;
9222;SDS011;7557;51.698;3.942;2023-03-23T08:20:01;12.98;;;2.90;;
9222;SDS011;7557;51.698;3.942;2023-03-23T08:22:37;7.60;;;2.70;;
9222;SDS011;7557;51.698;3.942;2023-03-23T08:25:06;11.60;;;2.80;;
9222;SDS011;7557;51.698;3.942;2023-03-23T08:27:35;10.87;;;3.43;;
9222;SDS011;7557;51.698;3.942;2023-03-23T08:30:06;9.93;;;2.83;;
9222;SDS011;7557;51.698;3.942;2023-03-23T08:32:34;9.23;;;3.13;;
9222;SDS011;7557;51.698;3.942;2023-03-23T08:35:02;7.53;;;2.57;;
9222;SDS011;7557;51.698;3.942;2023-03-23T08:37:30;13.38;;;3.38;;
9222;SDS011;7557;51.698;3.942;2023-03-23T08:39:59;8.77;;;3.60;;
9222;SDS011;7557;51.698;3.942;2023-03-23T08:42:32;7.18;;;3.03;;
9222;SDS011;7557;51.698;3.942;2023-03-23T08:45:00;6.43;;;3.83;;
9222;SDS011;7557;51.698;3.942;2023-03-23T08:47:28;14.90;;;4.55;;
9222;SDS011;7557;51.698;3.942;2023-03-23T08:49:56;11.93;;;3.83;;
9222;SDS011;7557;51.698;3.942;2023-03-23T08:52:23;11.90;;;3.50;;
9222;SDS011;7557;51.698;3.942;2023-03-23T08:54:51;9.50;;;3.65;;
9222;SDS011;7557;51.698;3.942;2023-03-23T08:57:19;19.55;;;4.03;;
9222;SDS011;7557;51.698;3.942;2023-03-23T08:59:47;10.00;;;3.47;;
9222;SDS011;7557;51.698;3.942;2023-03-23T09:02:15;15.52;;;4.40;;
9222;SDS011;7557;51.698;3.942;2023-03-23T09:04:43;10.93;;;4.40;;
9222;SDS011;7557;51.698;3.942;2023-03-23T09:07:10;14.48;;;4.03;;
9222;SDS011;7557;51.698;3.942;2023-03-23T09:09:40;12.40;;;3.50;;
9222;SDS011;7557;51.698;3.942;2023-03-23T09:12:08;11.57;;;3.92;;
9222;SDS011;7557;51.698;3.942;2023-03-23T09:14:37;7.78;;;3.72;;
9222;SDS011;7557;51.698;3.942;2023-03-23T09:17:05;13.15;;;4.13;;
9222;SDS011;7557;51.698;3.942;2023-03-23T09:19:36;14.50;;;3.78;;
9222;SDS011;7557;51.698;3.942;2023-03-23T09:22:04;12.93;;;4.63;;
9222;SDS011;7557;51.698;3.942;2023-03-23T09:24:31;11.75;;;3.95;;
9222;SDS011;7557;51.698;3.942;2023-03-23T09:26:59;13.02;;;3.55;;
9222;SDS011;7557;51.698;3.942;2023-03-23T09:29:26;14.50;;;3.85;;
9222;SDS011;7557;51.698;3.942;2023-03-23T09:31:55;15.32;;;4.28;;
9222;SDS011;7557;51.698;3.942;2023-03-23T09:34:23;11.40;;;3.58;;
9222;SDS011;7557;51.698;3.942;2023-03-23T09:36:50;12.10;;;3.92;;
9222;SDS011;7557;51.698;3.942;2023-03-23T09:39:18;14.63;;;4.97;;
9222;SDS011;7557;51.698;3.942;2023-03-23T09:41:57;12.65;;;3.50;;
9222;SDS011;7557;51.698;3.942;2023-03-23T09:44:38;12.50;;;3.72;;
9222;SDS011;7557;51.698;3.942;2023-03-23T09:47:17;12.82;;;3.38;;
9222;SDS011;7557;51.698;3.942;2023-03-23T09:49:48;15.18;;;3.78;;
9222;SDS011;7557;51.698;3.942;2023-03-23T09:52:20;15.45;;;5.00;;
9222;SDS011;7557;51.698;3.942;2023-03-23T09:54:49;10.75;;;4.10;;
9222;SDS011;7557;51.698;3.942;2023-03-23T09:57:19;13.48;;;3.92;;
9222;SDS011;7557;51.698;3.942;2023-03-23T09:59:54;19.58;;;4.22;;
9222;SDS011;7557;51.698;3.942;2023-03-23T10:02:29;14.95;;;4.03;;
9222;SDS011;7557;51.698;3.942;2023-03-23T10:05:20;12.70;;;4.15;;
9222;SDS011;7557;51.698;3.942;2023-03-23T10:07:54;12.73;;;4.30;;
9222;SDS011;7557;51.698;3.942;2023-03-23T10:10:22;14.43;;;4.60;;
9222;SDS011;7557;51.698;3.942;2023-03-23T10:12:55;14.20;;;4.43;;
9222;SDS011;7557;51.698;3.942;2023-03-23T10:15:27;15.27;;;5.07;;
9222;SDS011;7557;51.698;3.942;2023-03-23T10:18:00;10.55;;;3.97;;
9222;SDS011;7557;51.698;3.942;2023-03-23T10:20:35;11.55;;;3.53;;
9222;SDS011;7557;51.698;3.942;2023-03-23T10:23:12;19.90;;;4.97;;
9222;SDS011;7557;51.698;3.942;2023-03-23T10:25:59;11.32;;;4.03;;
9222;SDS011;7557;51.698;3.942;2023-03-23T10:28:37;16.25;;;4.60;;
9222;SDS011;7557;51.698;3.942;2023-03-23T10:31:08;12.25;;;3.50;;
9222;SDS011;7557;51.698;3.942;2023-03-23T10:33:40;13.90;;;3.47;;
9222;SDS011;7557;51.698;3.942;2023-03-23T10:36:10;12.90;;;3.38;;
9222;SDS011;7557;51.698;3.942;2023-03-23T10:38:43;8.05;;;2.85;;
9222;SDS011;7557;51.698;3.942;2023-03-23T10:41:14;12.68;;;3.60;;
9222;SDS011;7557;51.698;3.942;2023-03-23T10:43:43;15.65;;;3.47;;
9222;SDS011;7557;51.698;3.942;2023-03-23T10:46:16;12.07;;;3.13;;
9222;SDS011;7557;51.698;3.942;2023-03-23T10:48:53;7.90;;;2.83;;
9222;SDS011;7557;51.698;3.942;2023-03-23T10:51:25;7.05;;;2.47;;
9222;SDS011;7557;51.698;3.942;2023-03-23T10:53:57;10.27;;;3.80;;
9222;SDS011;7557;51.698;3.942;2023-03-23T10:56:27;9.30;;;2.30;;
9222;SDS011;7557;51.698;3.942;2023-03-23T10:59:10;9.25;;;2.95;;
9222;SDS011;7557;51.698;3.942;2023-03-23T11:01:42;8.48;;;3.17;;
9222;SDS011;7557;51.698;3.942;2023-03-23T11:04:13;6.32;;;2.67;;
9222;SDS011;7557;51.698;3.942;2023-03-23T11:06:44;6.40;;;2.55;;
9222;SDS011;7557;51.698;3.942;2023-03-23T11:09:14;9.45;;;3.15;;
9222;SDS011;7557;51.698;3.942;2023-03-23T11:11:43;7.07;;;2.50;;
9222;SDS011;7557;51.698;3.942;2023-03-23T11:14:16;10.50;;;3.05;;
9222;SDS011;7557;51.698;3.942;2023-03-23T11:16:46;7.80;;;2.38;;
9222;SDS011;7557;51.698;3.942;2023-03-23T11:19:22;6.80;;;2.95;;
9222;SDS011;7557;51.698;3.942;2023-03-23T11:21:52;11.13;;;2.72;;
9222;SDS011;7557;51.698;3.942;2023-03-23T11:24:32;9.82;;;3.13;;
9222;SDS011;7557;51.698;3.942;2023-03-23T11:27:01;10.00;;;3.05;;
9222;SDS011;7557;51.698;3.942;2023-03-23T11:29:32;14.75;;;3.42;;
9222;SDS011;7557;51.698;3.942;2023-03-23T11:32:03;9.48;;;3.33;;
9222;SDS011;7557;51.698;3.942;2023-03-23T11:34:35;7.40;;;3.40;;
9222;SDS011;7557;51.698;3.942;2023-03-23T11:37:09;9.77;;;3.22;;
9222;SDS011;7557;51.698;3.942;2023-03-23T11:39:47;10.13;;;2.90;;
9222;SDS011;7557;51.698;3.942;2023-03-23T11:42:18;10.48;;;2.95;;
9222;SDS011;7557;51.698;3.942;2023-03-23T11:44:47;5.95;;;3.10;;
9222;SDS011;7557;51.698;3.942;2023-03-23T11:47:17;8.32;;;3.42;;
9222;SDS011;7557;51.698;3.942;2023-03-23T11:49:52;13.48;;;3.60;;
9222;SDS011;7557;51.698;3.942;2023-03-23T11:52:29;9.38;;;3.10;;
9222;SDS011;7557;51.698;3.942;2023-03-23T11:55:07;9.52;;;3.35;;
9222;SDS011;7557;51.698;3.942;2023-03-23T11:57:38;9.77;;;2.80;;
9222;SDS011;7557;51.698;3.942;2023-03-23T12:00:11;13.07;;;4.03;;
9222;SDS011;7557;51.698;3.942;2023-03-23T12:02:43;11.45;;;3.40;;
9222;SDS011;7557;51.698;3.942;2023-03-23T12:05:27;8.43;;;3.20;;
9222;SDS011;7557;51.698;3.942;2023-03-23T12:08:07;13.40;;;3.28;;
9222;SDS011;7557;51.698;3.942;2023-03-23T12:10:44;5.22;;;2.78;;
9222;SDS011;7557;51.698;3.942;2023-03-23T12:13:36;8.40;;;2.92;;
9222;SDS011;7557;51.698;3.942;2023-03-23T12:16:19;5.75;;;2.78;;
9222;SDS011;7557;51.698;3.942;2023-03-23T12:19:03;7.80;;;3.30;;
9222;SDS011;7557;51.698;3.942;2023-03-23T12:21:41;11.10;;;3.78;;
9222;SDS011;7557;51.698;3.942;2023-03-23T12:24:18;6.30;;;2.90;;
9222;SDS011;7557;51.698;3.942;2023-03-23T12:26:55;7.93;;;2.90;;
9222;SDS011;7557;51.698;3.942;2023-03-23T12:29:37;9.70;;;2.92;;
9222;SDS011;7557;51.698;3.942;2023-03-23T12:32:23;8.93;;;2.90;;
9222;SDS011;7557;51.698;3.942;2023-03-23T12:35:02;10.07;;;3.63;;
9222;SDS011;7557;51.698;3.942;2023-03-23T12:37:44;10.10;;;3.88;;
9222;SDS011;7557;51.698;3.942;2023-03-23T12:40:23;12.68;;;3.47;;
9222;SDS011;7557;51.698;3.942;2023-03-23T12:43:01;15.23;;;4.63;;
9222;SDS011;7557;51.698;3.942;2023-03-23T12:45:51;12.27;;;3.65;;
9222;SDS011;7557;51.698;3.942;2023-03-23T12:48:26;16.42;;;3.97;;
9222;SDS011;7557;51.698;3.942;2023-03-23T12:51:02;12.40;;;3.53;;
9222;SDS011;7557;51.698;3.942;2023-03-23T12:53:43;10.80;;;4.07;;
9222;SDS011;7557;51.698;3.942;2023-03-23T12:56:20;8.13;;;3.30;;
9222;SDS011;7557;51.698;3.942;2023-03-23T12:58:53;12.27;;;4.18;;
9222;SDS011;7557;51.698;3.942;2023-03-23T13:01:27;8.77;;;3.33;;
9222;SDS011;7557;51.698;3.942;2023-03-23T13:04:03;8.55;;;3.47;;
9222;SDS011;7557;51.698;3.942;2023-03-23T13:06:35;13.07;;;3.03;;
9222;SDS011;7557;51.698;3.942;2023-03-23T13:09:09;10.98;;;3.75;;
9222;SDS011;7557;51.698;3.942;2023-03-23T13:11:42;10.18;;;3.65;;
9222;SDS011;7557;51.698;3.942;2023-03-23T13:17:10;12.68;;;3.78;;
9222;SDS011;7557;51.698;3.942;2023-03-23T13:22:58;13.48;;;4.18;;
9222;SDS011;7557;51.698;3.942;2023-03-23T13:25:39;14.48;;;4.35;;
9222;SDS011;7557;51.698;3.942;2023-03-23T13:28:14;14.50;;;3.90;;
9222;SDS011;7557;51.698;3.942;2023-03-23T13:31:00;13.38;;;3.78;;
9222;SDS011;7557;51.698;3.942;2023-03-23T13:33:31;12.55;;;3.40;;
9222;SDS011;7557;51.698;3.942;2023-03-23T13:36:05;8.75;;;2.97;;
9222;SDS011;7557;51.698;3.942;2023-03-23T13:38:36;7.50;;;2.85;;
9222;SDS011;7557;51.698;3.942;2023-03-23T13:41:07;11.93;;;2.63;;
9222;SDS011;7557;51.698;3.942;2023-03-23T13:43:37;6.82;;;3.20;;
9222;SDS011;7557;51.698;3.942;2023-03-23T13:46:07;5.25;;;3.00;;
9222;SDS011;7557;51.698;3.942;2023-03-23T13:48:41;9.05;;;3.08;;
9222;SDS011;7557;51.698;3.942;2023-03-23T13:54:19;9.88;;;4.03;;
9222;SDS011;7557;51.698;3.942;2023-03-23T13:56:56;13.55;;;4.45;;
9222;SDS011;7557;51.698;3.942;2023-03-23T13:59:30;9.07;;;3.63;;
9222;SDS011;7557;51.698;3.942;2023-03-23T14:04:56;11.70;;;3.60;;
9222;SDS011;7557;51.698;3.942;2023-03-23T14:07:50;12.85;;;3.75;;
9222;SDS011;7557;51.698;3.942;2023-03-23T14:10:20;13.95;;;3.33;;
9222;SDS011;7557;51.698;3.942;2023-03-23T14:12:52;11.32;;;3.58;;
9222;SDS011;7557;51.698;3.942;2023-03-23T14:15:20;12.10;;;4.32;;
9222;SDS011;7557;51.698;3.942;2023-03-23T14:17:54;11.13;;;3.72;;
9222;SDS011;7557;51.698;3.942;2023-03-23T14:20:24;16.02;;;3.63;;
9222;SDS011;7557;51.698;3.942;2023-03-23T14:22:57;8.52;;;3.60;;
9222;SDS011;7557;51.698;3.942;2023-03-23T14:25:26;13.48;;;3.83;;
9222;SDS011;7557;51.698;3.942;2023-03-23T14:27:57;11.88;;;3.53;;
9222;SDS011;7557;51.698;3.942;2023-03-23T14:30:25;13.57;;;4.20;;
9222;SDS011;7557;51.698;3.942;2023-03-23T14:33:03;13.00;;;4.25;;
9222;SDS011;7557;51.698;3.942;2023-03-23T14:35:33;13.60;;;4.85;;
9222;SDS011;7557;51.698;3.942;2023-03-23T14:38:02;12.50;;;4.00;;
9222;SDS011;7557;51.698;3.942;2023-03-23T14:40:30;17.02;;;4.65;;
9222;SDS011;7557;51.698;3.942;2023-03-23T14:43:00;12.82;;;3.60;;
9222;SDS011;7557;51.698;3.942;2023-03-23T14:45:27;14.20;;;3.88;;
9222;SDS011;7557;51.698;3.942;2023-03-23T14:47:56;15.95;;;4.25;;
9222;SDS011;7557;51.698;3.942;2023-03-23T14:50:26;10.90;;;3.67;;
9222;SDS011;7557;51.698;3.942;2023-03-23T14:52:59;11.05;;;4.47;;
9222;SDS011;7557;51.698;3.942;2023-03-23T14:55:37;17.30;;;4.10;;
9222;SDS011;7557;51.698;3.942;2023-03-23T14:58:12;13.02;;;3.72;;
9222;SDS011;7557;51.698;3.942;2023-03-23T15:00:41;14.60;;;4.70;;
9222;SDS011;7557;51.698;3.942;2023-03-23T15:03:12;14.43;;;4.55;;
9222;SDS011;7557;51.698;3.942;2023-03-23T15:05:43;14.25;;;4.40;;
9222;SDS011;7557;51.698;3.942;2023-03-23T15:08:13;8.10;;;4.22;;
9222;SDS011;7557;51.698;3.942;2023-03-23T15:10:50;14.05;;;4.55;;
9222;SDS011;7557;51.698;3.942;2023-03-23T15:13:21;14.13;;;3.88;;
9222;SDS011;7557;51.698;3.942;2023-03-23T15:15:49;14.93;;;5.13;;
9222;SDS011;7557;51.698;3.942;2023-03-23T15:18:22;14.68;;;4.20;;
9222;SDS011;7557;51.698;3.942;2023-03-23T15:20:56;17.15;;;4.57;;
9222;SDS011;7557;51.698;3.942;2023-03-23T15:23:27;15.68;;;4.30;;
9222;SDS011;7557;51.698;3.942;2023-03-23T15:25:56;9.73;;;3.70;;
9222;SDS011;7557;51.698;3.942;2023-03-23T15:28:31;13.55;;;4.13;;
9222;SDS011;7557;51.698;3.942;2023-03-23T15:31:00;11.48;;;4.45;;
9222;SDS011;7557;51.698;3.942;2023-03-23T15:33:34;15.07;;;4.25;;
9222;SDS011;7557;51.698;3.942;2023-03-23T15:36:05;12.95;;;4.25;;
9222;SDS011;7557;51.698;3.942;2023-03-23T15:38:35;17.20;;;4.43;;
9222;SDS011;7557;51.698;3.942;2023-03-23T15:41:04;15.98;;;4.50;;
9222;SDS011;7557;51.698;3.942;2023-03-23T15:43:51;18.45;;;4.47;;
9222;SDS011;7557;51.698;3.942;2023-03-23T15:46:23;14.48;;;4.80;;
9222;SDS011;7557;51.698;3.942;2023-03-23T15:48:52;14.40;;;4.57;;
9222;SDS011;7557;51.698;3.942;2023-03-23T15:51:21;14.45;;;4.65;;